Time;durP1;ratioP1;P1;durP2;ratioP2;P2;SDS_P1;SDS_P2;PMS_P1;PMS_P2;Temp;Humidity;BMP_temperature;BMP_pressure;BME280_temperature;BME280_humidity;BME280_pressure;Samples;Min_cycle;Max_cycle;Signal;HPM_P1;HPM_P2
2022/07/19 00:01:39;;;;;;;8.60;5.10;;;;;;;20.49;73.41;101729.66;4971124;28;20054;-73
2022/07/19 00:04:04;;;;;;;10.48;4.88;;;;;;;20.51;73.27;101727.66;4955249;28;20102;-73
2022/07/19 00:06:30;;;;;;;8.15;4.80;;;;;;;20.52;73.25;101718.66;4971616;28;20113;-73
2022/07/19 00:08:56;;;;;;;8.05;5.45;;;;;;;20.48;73.64;101722.63;4970518;28;20102;-73
2022/07/19 00:11:21;;;;;;;10.07;6.50;;;;;;;20.45;74.01;101720.28;4954619;28;20038;-73
2022/07/19 00:13:46;;;;;;;10.77;6.30;;;;;;;20.37;73.95;101720.16;4971750;28;20023;-73
2022/07/19 00:16:12;;;;;;;9.27;5.43;;;;;;;20.34;74.40;101717.81;4972279;28;20391;-73
2022/07/19 00:18:37;;;;;;;7.55;5.55;;;;;;;20.34;74.43;101720.47;4971729;28;20031;-73
2022/07/19 00:21:03;;;;;;;9.40;4.82;;;;;;;20.33;74.22;101716.13;4971600;28;20050;-73
2022/07/19 00:23:28;;;;;;;8.75;5.60;;;;;;;20.22;74.46;101711.88;4954500;28;20066;-73
2022/07/19 00:25:54;;;;;;;10.30;5.30;;;;;;;20.22;74.39;101716.38;4972237;28;20438;-73
2022/07/19 00:28:19;;;;;;;10.45;4.97;;;;;;;20.19;73.98;101712.19;4952859;28;20538;-73
2022/07/19 00:30:44;;;;;;;7.75;5.20;;;;;;;20.18;73.89;101712.34;4972057;28;20463;-73
2022/07/19 00:33:10;;;;;;;11.27;5.40;;;;;;;20.11;74.34;101708.63;4970890;28;20166;-73
2022/07/19 00:35:38;;;;;;;11.20;4.95;;;;;;;20.01;74.14;101709.53;4971078;28;20355;-74
2022/07/19 00:38:09;;;;;;;11.23;5.72;;;;;;;20.05;74.35;101710.06;4959160;28;20497;-72
2022/07/19 00:40:35;;;;;;;9.23;5.90;;;;;;;19.95;74.10;101710.13;4950889;29;20027;-73
2022/07/19 00:43:01;;;;;;;11.90;6.57;;;;;;;19.89;74.36;101702.75;4952155;29;20449;-71
2022/07/19 00:45:27;;;;;;;13.93;7.65;;;;;;;19.84;74.44;101697.03;4950801;29;20038;-71
2022/07/19 00:47:53;;;;;;;13.57;7.43;;;;;;;19.91;74.27;101703.41;4951439;29;20472;-71
2022/07/19 00:50:19;;;;;;;10.88;6.43;;;;;;;19.81;74.37;101705.34;4951360;29;20479;-72
2022/07/19 00:52:51;;;;;;;9.40;6.10;;;;;;;19.85;74.03;101701.38;4952062;29;20106;-71
2022/07/19 00:55:21;;;;;;;9.18;5.55;;;;;;;19.85;74.10;101698.69;4949192;29;20050;-72
2022/07/19 00:57:46;;;;;;;10.40;6.05;;;;;;;19.85;74.24;101701.38;4965494;28;20070;-72
2022/07/19 01:00:14;;;;;;;12.27;7.00;;;;;;;19.69;74.60;101694.06;4970134;28;20090;-72
2022/07/19 01:02:40;;;;;;;12.15;5.97;;;;;;;19.77;74.41;101695.97;4970003;28;20081;-72
2022/07/19 01:05:07;;;;;;;10.48;5.78;;;;;;;19.72;74.38;101703.59;4971320;28;20399;-72
2022/07/19 01:07:34;;;;;;;10.48;6.38;;;;;;;19.70;74.38;101694.88;4970859;28;20119;-72
2022/07/19 01:10:01;;;;;;;8.00;6.00;;;;;;;19.67;74.39;101706.72;4970995;28;20450;-72
2022/07/19 01:12:28;;;;;;;10.23;6.00;;;;;;;19.65;74.37;101702.53;4971467;28;20018;-72
2022/07/19 01:14:56;;;;;;;8.13;5.53;;;;;;;19.54;74.25;101700.88;4971650;28;20471;-72
2022/07/19 01:17:22;;;;;;;10.35;5.93;;;;;;;19.54;74.49;101700.88;4970305;28;20035;-72
2022/07/19 01:19:47;;;;;;;11.27;5.32;;;;;;;19.52;74.44;101702.00;4971806;28;20027;-72
2022/07/19 01:22:12;;;;;;;10.00;5.35;;;;;;;19.51;74.19;101703.00;4954022;28;20112;-72
2022/07/19 01:24:38;;;;;;;7.18;4.85;;;;;;;19.47;74.73;101698.94;4952958;28;20030;-71
2022/07/19 01:27:05;;;;;;;10.27;5.32;;;;;;;19.42;74.75;101699.41;4954107;28;20023;-73
2022/07/19 01:29:31;;;;;;;8.90;4.95;;;;;;;19.38;74.69;101698.84;4970151;28;20046;-72
2022/07/19 01:31:56;;;;;;;8.10;5.00;;;;;;;19.36;74.98;101700.84;4971167;28;20023;-73
2022/07/19 01:34:21;;;;;;;8.82;5.13;;;;;;;19.31;75.35;101700.44;4970935;28;20559;-72
2022/07/19 01:36:47;;;;;;;7.35;5.20;;;;;;;19.28;75.22;101700.75;4968645;28;20038;-72
2022/07/19 01:39:12;;;;;;;8.13;5.60;;;;;;;19.29;75.51;101699.75;4952092;29;20414;-73
2022/07/19 01:41:37;;;;;;;8.68;5.60;;;;;;;19.20;75.39;101697.97;4951767;29;20024;-73
2022/07/19 01:44:03;;;;;;;9.43;4.63;;;;;;;19.21;75.60;101697.00;4951589;29;20476;-73
2022/07/19 01:46:28;;;;;;;6.07;5.20;;;;;;;19.19;75.87;101693.63;4951354;29;20238;-72
2022/07/19 01:48:54;;;;;;;9.68;5.82;;;;;;;19.13;76.15;101694.22;4952658;29;20026;-72
2022/07/19 01:51:19;;;;;;;11.18;5.85;;;;;;;19.03;75.79;101693.44;4934031;29;20482;-73
2022/07/19 01:53:44;;;;;;;9.07;5.85;;;;;;;19.07;76.35;101692.16;4952165;29;20496;-73
2022/07/19 01:56:10;;;;;;;8.43;6.18;;;;;;;19.02;76.40;101694.41;4953241;28;20495;-73
2022/07/19 01:58:35;;;;;;;10.10;5.78;;;;;;;19.02;76.18;101694.41;4972960;28;20268;-73
2022/07/19 02:01:01;;;;;;;10.35;6.07;;;;;;;18.99;76.22;101689.38;4975347;28;20065;-73
2022/07/19 02:03:26;;;;;;;12.60;6.18;;;;;;;18.89;77.08;101693.94;4974361;28;20031;-73
2022/07/19 02:05:52;;;;;;;10.25;6.18;;;;;;;18.92;75.99;101690.97;4974203;28;20031;-72
2022/07/19 02:08:17;;;;;;;12.13;5.78;;;;;;;18.82;76.66;101691.00;4973841;28;20030;-72
2022/07/19 02:10:42;;;;;;;11.50;6.47;;;;;;;18.75;76.81;101688.06;4974505;28;20069;-71
2022/07/19 02:13:07;;;;;;;8.27;6.00;;;;;;;18.79;76.65;101692.13;4956359;28;20029;-71
2022/07/19 02:15:33;;;;;;;11.68;6.28;;;;;;;18.70;77.45;101700.16;4973661;28;20019;-73
2022/07/19 02:17:59;;;;;;;7.80;6.20;;;;;;;18.65;77.32;101692.59;4973835;28;20023;-72
2022/07/19 02:20:24;;;;;;;12.18;7.40;;;;;;;18.58;77.46;101683.47;4972830;28;20031;-72
2022/07/19 02:22:50;;;;;;;8.25;6.38;;;;;;;18.57;77.15;101684.44;4973953;28;20027;-72
2022/07/19 02:25:18;;;;;;;13.45;6.82;;;;;;;18.56;77.22;101681.94;4973815;28;20026;-72
2022/07/19 02:27:44;;;;;;;10.48;7.03;;;;;;;18.57;76.87;101680.94;4973353;28;20030;-71
2022/07/19 02:30:11;;;;;;;11.43;7.70;;;;;;;18.48;76.96;101682.66;4973530;28;20026;-71
2022/07/19 02:32:37;;;;;;;10.63;7.50;;;;;;;18.54;76.77;101679.41;4973142;28;20649;-73
2022/07/19 02:35:03;;;;;;;12.20;7.82;;;;;;;18.48;76.76;101678.16;4955471;28;20030;-72
2022/07/19 02:37:28;;;;;;;9.15;7.25;;;;;;;18.52;76.42;101676.06;4965230;28;20027;-71
2022/07/19 02:39:53;;;;;;;8.52;7.32;;;;;;;18.50;76.20;101671.84;4953921;29;20391;-72
2022/07/19 02:42:19;;;;;;;15.88;7.75;;;;;;;18.39;76.41;101670.19;4952748;28;20110;-71
2022/07/19 02:44:44;;;;;;;11.35;7.40;;;;;;;18.41;76.72;101673.53;4954108;29;20110;-72
2022/07/19 02:47:09;;;;;;;10.23;8.02;;;;;;;18.35;77.34;101671.44;4952389;29;20078;-73
2022/07/19 02:49:35;;;;;;;12.13;8.13;;;;;;;18.35;77.29;101666.13;4953492;29;20086;-71
2022/07/19 02:52:00;;;;;;;13.57;7.80;;;;;;;18.30;76.80;101665.72;4954471;29;20031;-71
2022/07/19 02:54:25;;;;;;;11.70;7.95;;;;;;;18.30;76.66;101666.56;4952266;29;20058;-72
2022/07/19 02:56:51;;;;;;;10.32;7.93;;;;;;;18.21;77.60;101666.59;4961138;28;20440;-72
2022/07/19 02:59:19;;;;;;;10.95;8.43;;;;;;;18.24;77.41;101668.97;4955043;28;20050;-74
2022/07/19 03:01:44;;;;;;;10.57;8.68;;;;;;;18.15;77.38;101668.84;4972802;28;20082;-72
2022/07/19 03:04:10;;;;;;;11.15;8.60;;;;;;;18.15;77.08;101668.84;4956289;28;20440;-72
2022/07/19 03:06:35;;;;;;;13.15;8.90;;;;;;;18.07;77.28;101660.72;4973094;28;20037;-73
2022/07/19 03:09:00;;;;;;;10.40;7.95;;;;;;;18.02;77.78;101662.97;4972051;28;20033;-72
2022/07/19 03:11:26;;;;;;;10.13;8.25;;;;;;;18.08;77.53;101661.56;4972896;28;20023;-73
2022/07/19 03:13:51;;;;;;;10.13;8.38;;;;;;;18.01;78.10;101658.63;4956228;28;20159;-72
2022/07/19 03:16:16;;;;;;;14.90;9.40;;;;;;;17.99;77.96;101654.41;4971865;28;20027;-72
2022/07/19 03:18:42;;;;;;;10.30;8.38;;;;;;;18.06;77.42;101652.88;4973105;28;20038;-72
2022/07/19 03:21:07;;;;;;;11.00;8.70;;;;;;;18.00;77.24;101645.44;4973156;28;20120;-72
2022/07/19 03:23:35;;;;;;;12.32;8.88;;;;;;;17.95;77.77;101643.19;4972275;28;20033;-72
2022/07/19 03:26:00;;;;;;;12.48;8.50;;;;;;;17.95;77.76;101650.34;4973279;28;20105;-72
2022/07/19 03:28:26;;;;;;;10.20;8.20;;;;;;;18.00;77.27;101653.41;4955140;28;20134;-73
2022/07/19 03:30:51;;;;;;;11.20;8.05;;;;;;;17.96;77.66;101642.22;4972482;28;20399;-73
2022/07/19 03:33:17;;;;;;;11.77;8.20;;;;;;;17.99;77.63;101641.94;4972301;28;20387;-73
2022/07/19 03:35:43;;;;;;;9.30;7.85;;;;;;;17.92;77.79;101650.63;4973325;28;20398;-74
2022/07/19 03:38:10;;;;;;;11.68;8.13;;;;;;;17.94;77.74;101646.00;4959176;28;20058;-74
2022/07/19 03:40:36;;;;;;;12.55;7.72;;;;;;;17.92;77.90;101647.97;4953196;29;20045;-72
2022/07/19 03:43:01;;;;;;;19.77;9.02;;;;;;;17.88;77.88;101650.06;4935706;29;20023;-74
2022/07/19 03:45:26;;;;;;;10.93;8.10;;;;;;;17.84;78.25;101654.00;4952959;29;20027;-74
2022/07/19 03:47:52;;;;;;;11.70;8.50;;;;;;;17.83;78.10;101641.66;4936141;28;20019;-73
2022/07/19 03:50:17;;;;;;;10.07;7.50;;;;;;;17.83;78.20;101639.00;4951260;28;20114;-73
2022/07/19 03:52:42;;;;;;;10.65;7.88;;;;;;;17.85;78.15;101647.69;4953163;28;20471;-73
2022/07/19 03:55:08;;;;;;;10.75;8.10;;;;;;;17.85;77.97;101645.88;4951403;28;20066;-73
2022/07/19 03:57:33;;;;;;;12.98;8.43;;;;;;;17.76;77.95;101645.88;4947227;28;20152;-72
2022/07/19 03:59:59;;;;;;;12.63;7.60;;;;;;;17.76;78.07;101652.03;4971637;28;20112;-73
2022/07/19 04:02:24;;;;;;;11.38;7.70;;;;;;;17.76;78.25;101651.22;4972335;28;20038;-72
2022/07/19 04:04:50;;;;;;;9.48;7.72;;;;;;;17.80;78.38;101652.59;4972010;28;20035;-73
2022/07/19 04:07:18;;;;;;;10.77;7.60;;;;;;;17.81;78.24;101660.44;4972845;28;20015;-71
2022/07/19 04:09:43;;;;;;;12.63;7.57;;;;;;;17.80;78.53;101650.78;4972438;28;20497;-72
2022/07/19 04:12:09;;;;;;;10.48;7.95;;;;;;;17.84;78.33;101654.84;4972057;28;20110;-72
2022/07/19 04:14:34;;;;;;;15.48;8.88;;;;;;;17.81;78.46;101648.97;4971474;28;20052;-72
2022/07/19 04:17:00;;;;;;;17.10;8.73;;;;;;;17.82;78.41;101654.16;4972284;28;20478;-72
2022/07/19 04:19:25;;;;;;;14.50;8.93;;;;;;;17.91;78.10;101649.78;4970560;28;20054;-71
2022/07/19 04:21:51;;;;;;;10.30;8.30;;;;;;;18.09;77.61;101647.25;4972000;28;20034;-71
2022/07/19 04:24:16;;;;;;;13.43;9.30;;;;;;;18.28;76.73;101646.38;4972245;28;20085;-72
2022/07/19 04:26:41;;;;;;;11.95;8.63;;;;;;;18.46;76.76;101655.31;4971806;28;20077;-71
2022/07/19 04:29:07;;;;;;;14.05;8.68;;;;;;;18.44;76.38;101641.28;4954839;28;20019;-72
2022/07/19 04:31:32;;;;;;;13.10;8.98;;;;;;;18.46;76.26;101644.66;4954202;28;20438;-72
2022/07/19 04:33:58;;;;;;;12.85;9.00;;;;;;;18.38;76.26;101650.69;4971626;28;20368;-72
2022/07/19 04:36:23;;;;;;;14.38;8.95;;;;;;;18.36;76.66;101649.16;4971874;28;20606;-71
2022/07/19 04:38:48;;;;;;;17.35;10.02;;;;;;;18.35;77.15;101648.31;4953883;28;20027;-71
2022/07/19 04:41:14;;;;;;;17.02;10.07;;;;;;;18.32;77.05;101648.59;4935320;29;20664;-72
2022/07/19 04:43:39;;;;;;;13.40;9.98;;;;;;;18.31;77.16;101643.41;4934993;29;20035;-72
2022/07/19 04:46:04;;;;;;;11.45;10.00;;;;;;;18.33;77.17;101646.78;4952726;29;20154;-72
2022/07/19 04:48:29;;;;;;;14.02;10.38;;;;;;;18.28;77.64;101652.53;4951746;29;20031;-72
2022/07/19 04:50:55;;;;;;;17.55;10.95;;;;;;;18.27;77.80;101650.03;4953097;29;20035;-73
2022/07/19 04:53:20;;;;;;;17.08;11.38;;;;;;;18.29;78.02;101648.06;4955922;28;20030;-72
2022/07/19 04:55:46;;;;;;;14.65;11.38;;;;;;;18.25;77.75;101659.97;4954477;28;20487;-72
2022/07/19 04:58:11;;;;;;;19.30;12.10;;;;;;;18.22;77.88;101646.94;4970719;28;20029;-72
2022/07/19 05:00:36;;;;;;;15.50;12.15;;;;;;;18.20;77.80;101654.25;4970374;28;20077;-72
2022/07/19 05:03:02;;;;;;;13.63;11.95;;;;;;;18.27;77.32;101650.03;4971820;28;20034;-72
2022/07/19 05:05:27;;;;;;;18.88;12.65;;;;;;;18.24;77.42;101644.97;4971699;28;20075;-73
2022/07/19 05:07:53;;;;;;;19.42;12.32;;;;;;;18.30;78.09;101642.56;4971598;28;20027;-71
2022/07/19 05:10:18;;;;;;;18.15;12.35;;;;;;;18.32;79.17;101637.94;4970804;28;20030;-72
2022/07/19 05:12:44;;;;;;;15.68;12.07;;;;;;;18.46;77.43;101639.31;4971787;28;20030;-73
2022/07/19 05:15:09;;;;;;;20.52;12.43;;;;;;;18.56;77.20;101633.97;4971224;28;20029;-73
2022/07/19 05:17:36;;;;;;;15.85;11.52;;;;;;;18.63;77.40;101641.25;4970934;28;20030;-73
2022/07/19 05:20:02;;;;;;;21.33;12.95;;;;;;;18.72;77.15;101635.03;4971920;28;20487;-71
2022/07/19 05:22:27;;;;;;;18.48;12.60;;;;;;;18.93;74.14;101641.97;4970517;28;20023;-72
2022/07/19 05:24:53;;;;;;;15.43;12.52;;;;;;;19.03;73.92;101642.75;4971747;28;20399;-73
2022/07/19 05:27:20;;;;;;;16.15;12.55;;;;;;;18.99;76.97;101638.69;4971420;28;20026;-71
2022/07/19 05:29:45;;;;;;;19.63;13.30;;;;;;;18.98;77.98;101639.69;4970820;28;20478;-72
2022/07/19 05:32:10;;;;;;;19.13;13.10;;;;;;;19.10;76.06;101646.50;4973756;28;20022;-73
2022/07/19 05:34:36;;;;;;;19.60;14.73;;;;;;;19.08;76.61;101648.47;4957526;28;20093;-72
2022/07/19 05:37:01;;;;;;;23.52;13.32;;;;;;;19.23;73.53;101649.66;4970644;28;20020;-73
2022/07/19 05:39:27;;;;;;;18.38;13.20;;;;;;;19.39;73.51;101659.66;4955202;29;20058;-73
2022/07/19 05:41:52;;;;;;;21.70;13.35;;;;;;;19.63;71.55;101659.94;4956023;29;20023;-73
2022/07/19 05:44:18;;;;;;;17.58;12.35;;;;;;;19.70;72.54;101663.69;4954585;29;20023;-74
2022/07/19 05:46:43;;;;;;;24.00;13.35;;;;;;;19.90;69.27;101659.00;4955685;29;20445;-71
2022/07/19 05:49:10;;;;;;;26.00;13.07;;;;;;;20.03;67.79;101664.81;4955751;29;20066;-74
2022/07/19 05:51:36;;;;;;;21.98;13.25;;;;;;;20.19;67.40;101656.06;4954419;29;20027;-73
2022/07/19 05:54:03;;;;;;;25.92;12.90;;;;;;;20.30;65.77;101655.81;4955311;29;20038;-74
2022/07/19 05:56:28;;;;;;;20.00;11.82;;;;;;;20.50;64.41;101653.81;4958439;28;20042;-74
2022/07/19 05:58:53;;;;;;;33.05;12.98;;;;;;;20.60;64.87;101651.84;4972640;28;20018;-72
2022/07/19 06:01:19;;;;;;;21.52;12.85;;;;;;;20.76;62.91;101658.25;4955944;28;20467;-71
2022/07/19 06:04:03;;;;;;;21.20;11.93;;;;;;;20.87;64.71;101647.31;4973833;28;20533;-71
2022/07/19 06:06:31;;;;;;;25.48;11.65;;;;;;;21.07;61.96;101643.34;4973896;28;20085;-73
2022/07/19 06:08:57;;;;;;;26.42;11.75;;;;;;;21.23;60.30;101651.47;4974803;28;20483;-73
2022/07/19 06:11:23;;;;;;;24.58;11.98;;;;;;;21.30;60.94;101648.13;4973915;28;20037;-73
2022/07/19 06:13:49;;;;;;;22.13;11.13;;;;;;;21.45;59.70;101657.19;4974646;28;20487;-73
2022/07/19 06:16:17;;;;;;;18.80;10.10;;;;;;;21.57;58.58;101648.66;4974836;28;20027;-71
2022/07/19 06:18:43;;;;;;;26.40;10.30;;;;;;;21.68;59.33;101652.88;4974184;28;20030;-71
2022/07/19 06:21:14;;;;;;;28.23;9.95;;;;;;;21.82;58.58;101654.91;4974646;28;20042;-71
2022/07/19 06:23:40;;;;;;;24.83;8.98;;;;;;;21.90;58.27;101651.38;4956918;28;20023;-72
2022/07/19 06:26:07;;;;;;;23.83;9.32;;;;;;;21.98;57.69;101643.31;4956582;28;20030;-72
2022/07/19 06:28:33;;;;;;;25.80;9.18;;;;;;;22.12;56.21;101655.25;4973494;28;20031;-73
2022/07/19 06:30:59;;;;;;;25.70;8.68;;;;;;;22.23;56.89;101652.22;4956946;28;20113;-73
2022/07/19 06:33:25;;;;;;;24.35;8.20;;;;;;;22.35;56.05;101650.84;4973574;28;20169;-72
2022/07/19 06:35:51;;;;;;;24.70;7.78;;;;;;;22.40;56.51;101645.81;4974684;28;20038;-72
2022/07/19 06:38:16;;;;;;;21.05;7.65;;;;;;;22.61;54.42;101649.78;4942393;29;20027;-72
2022/07/19 06:40:42;;;;;;;23.27;7.28;;;;;;;22.66;55.17;101639.38;4954548;29;20105;-71
2022/07/19 06:43:08;;;;;;;25.50;7.60;;;;;;;22.80;54.91;101638.63;4936726;29;20110;-71
2022/07/19 06:45:33;;;;;;;22.55;7.13;;;;;;;23.01;53.70;101646.97;4954443;29;20475;-72
2022/07/19 06:47:59;;;;;;;18.27;6.90;;;;;;;23.10;54.18;101650.47;4954274;29;20038;-72
2022/07/19 06:50:24;;;;;;;30.85;7.32;;;;;;;23.23;52.96;101644.53;4937248;29;20034;-73
2022/07/19 06:52:50;;;;;;;17.58;7.03;;;;;;;23.34;52.09;101642.28;4955030;29;20468;-72
2022/07/19 06:55:18;;;;;;;18.23;6.28;;;;;;;23.49;53.00;101641.50;4953006;29;20507;-71
2022/07/19 06:57:43;;;;;;;22.30;7.03;;;;;;;23.60;51.79;101638.41;4968909;28;20037;-73
2022/07/19 07:00:10;;;;;;;17.42;6.75;;;;;;;23.70;52.50;101644.41;4972839;28;20407;-72
2022/07/19 07:02:36;;;;;;;18.23;6.72;;;;;;;23.86;51.55;101646.13;4973299;28;20661;-72
2022/07/19 07:05:01;;;;;;;16.38;5.63;;;;;;;24.02;52.87;101646.84;4973687;28;20030;-72
2022/07/19 07:07:27;;;;;;;21.70;6.25;;;;;;;24.33;50.08;101644.00;4972809;28;20026;-73
2022/07/19 07:09:52;;;;;;;18.42;5.47;;;;;;;24.53;49.29;101640.78;4973938;28;20025;-73
2022/07/19 07:12:18;;;;;;;25.88;6.30;;;;;;;24.87;48.44;101634.84;4973230;28;20105;-72
2022/07/19 07:14:43;;;;;;;16.80;5.60;;;;;;;25.16;47.17;101640.16;4973068;28;20077;-73
2022/07/19 07:17:08;;;;;;;17.40;5.38;;;;;;;25.49;46.30;101631.63;4973945;28;20024;-73
2022/07/19 07:19:34;;;;;;;14.77;5.22;;;;;;;25.73;46.66;101630.44;4973236;28;20026;-74
2022/07/19 07:22:01;;;;;;;11.35;4.60;;;;;;;26.06;45.20;101630.72;4972914;28;20440;-73
2022/07/19 07:24:27;;;;;;;14.82;5.00;;;;;;;26.31;45.94;101623.81;4972690;28;20038;-73
2022/07/19 07:26:52;;;;;;;15.57;4.70;;;;;;;26.71;44.14;101624.91;4973460;28;20468;-73
2022/07/19 07:29:18;;;;;;;18.50;4.35;;;;;;;26.97;42.51;101623.34;4972094;28;20107;-74
2022/07/19 07:31:43;;;;;;;8.57;3.65;;;;;;;27.20;41.33;101621.16;4939582;28;20033;-74
2022/07/19 07:34:09;;;;;;;16.48;3.80;;;;;;;27.40;40.50;101630.16;4973170;28;20030;-73
2022/07/19 07:36:34;;;;;;;10.25;3.83;;;;;;;27.46;40.92;101623.91;4971462;28;20027;-74
2022/07/19 07:38:59;;;;;;;14.18;4.00;;;;;;;27.86;40.08;101625.84;4953744;29;20024;-73
2022/07/19 07:41:24;;;;;;;9.95;3.67;;;;;;;28.09;38.93;101624.41;4953197;29;20516;-73
2022/07/19 07:43:50;;;;;;;13.38;3.63;;;;;;;28.29;38.48;101624.38;4953359;29;20042;-74
2022/07/19 07:46:18;;;;;;;11.63;3.90;;;;;;;28.50;39.30;101620.59;4953672;29;20019;-73
2022/07/19 07:48:43;;;;;;;9.23;3.63;;;;;;;28.69;38.85;101616.97;4953569;29;20024;-73
2022/07/19 07:51:09;;;;;;;14.95;3.92;;;;;;;28.85;39.61;101607.59;4952983;29;20031;-73
2022/07/19 07:53:34;;;;;;;11.30;3.72;;;;;;;29.26;37.80;101603.59;4952647;28;20439;-74
2022/07/19 07:55:59;;;;;;;19.73;4.10;;;;;;;29.48;37.63;101601.38;4953271;28;20027;-72
2022/07/19 07:58:25;;;;;;;10.85;4.00;;;;;;;29.65;37.02;101596.25;4970953;28;20483;-74
2022/07/19 08:00:50;;;;;;;10.50;3.80;;;;;;;29.97;37.40;101599.72;4955527;28;20058;-73
2022/07/19 08:03:17;;;;;;;9.07;3.90;;;;;;;30.00;36.49;101594.66;4971493;28;20133;-72
2022/07/19 08:05:48;;;;;;;12.95;3.90;;;;;;;30.32;37.29;101592.69;4972880;28;20121;-73
2022/07/19 08:08:14;;;;;;;10.77;3.85;;;;;;;30.38;36.45;101596.41;4972751;28;20018;-73
2022/07/19 08:10:39;;;;;;;10.10;3.30;;;;;;;30.55;33.43;101595.59;4971379;28;20143;-71
2022/07/19 08:13:05;;;;;;;9.70;3.30;;;;;;;30.60;33.68;101584.06;4972268;28;20483;-72
2022/07/19 08:15:30;;;;;;;11.57;3.35;;;;;;;30.83;35.70;101591.50;4971824;28;20043;-73
2022/07/19 08:17:56;;;;;;;7.97;3.45;;;;;;;31.06;34.76;101588.03;4971890;28;20037;-73
2022/07/19 08:20:21;;;;;;;6.45;3.22;;;;;;;31.38;33.89;101588.66;4971942;28;20035;-73
2022/07/19 08:22:46;;;;;;;10.98;3.10;;;;;;;31.43;33.00;101583.31;4972505;28;20387;-73
2022/07/19 08:25:15;;;;;;;13.07;3.20;;;;;;;31.53;34.23;101586.28;4971579;28;20022;-73
2022/07/19 08:27:40;;;;;;;14.13;3.67;;;;;;;31.61;31.80;101580.50;4954133;28;20081;-73
2022/07/19 08:30:06;;;;;;;11.82;3.25;;;;;;;31.69;32.09;101582.91;4954834;28;20022;-73
2022/07/19 08:32:31;;;;;;;10.93;3.00;;;;;;;31.94;31.26;101576.41;4970862;28;20117;-73
2022/07/19 08:34:56;;;;;;;14.45;3.30;;;;;;;31.91;30.53;101582.34;4972297;28;20376;-73
2022/07/19 08:37:22;;;;;;;10.95;3.20;;;;;;;32.08;30.81;101575.13;4965013;28;20027;-73
2022/07/19 08:39:47;;;;;;;10.75;3.38;;;;;;;32.17;30.55;101568.22;4952799;29;20452;-73
2022/07/19 08:42:12;;;;;;;5.97;2.80;;;;;;;32.46;30.51;101571.06;4935480;29;20023;-73
2022/07/19 08:44:41;;;;;;;7.72;3.03;;;;;;;32.55;30.07;101572.34;4951943;29;20031;-73
2022/07/19 08:47:07;;;;;;;7.22;2.80;;;;;;;32.76;29.29;101565.38;4952429;29;20027;-73
2022/07/19 08:49:33;;;;;;;12.20;3.60;;;;;;;32.87;29.77;101562.66;4952198;29;20089;-73
2022/07/19 08:52:00;;;;;;;11.20;3.25;;;;;;;32.97;30.08;101567.44;4952722;29;20023;-73
2022/07/19 08:54:25;;;;;;;8.65;3.28;;;;;;;33.10;29.04;101563.59;4950254;29;20031;-73
2022/07/19 08:59:34;;;;;;;11.07;3.45;;;;;;;33.16;29.66;101559.88;4969253;28;20096;-73
2022/07/19 09:02:00;;;;;;;12.07;3.20;;;;;;;33.15;28.88;101559.03;4971565;28;20451;-72
2022/07/19 09:04:27;;;;;;;11.93;3.50;;;;;;;33.41;29.58;101562.25;4970960;28;20390;-73
2022/07/19 09:06:55;;;;;;;8.95;3.33;;;;;;;33.37;29.50;101558.38;4970542;28;20093;-73
2022/07/19 09:09:24;;;;;;;11.52;3.42;;;;;;;33.51;29.31;101557.78;4970903;28;20030;-73
2022/07/19 09:11:51;;;;;;;8.90;3.40;;;;;;;33.69;31.01;101564.06;4971398;28;20106;-73
2022/07/19 09:14:24;;;;;;;8.93;3.08;;;;;;;33.94;29.72;101550.81;4970581;28;20058;-73
2022/07/19 09:16:52;;;;;;;11.55;3.55;;;;;;;34.00;28.54;101555.25;4971696;28;20076;-73
2022/07/19 09:19:18;;;;;;;15.50;4.03;;;;;;;34.09;28.81;101548.28;4970812;28;20101;-74
2022/07/19 09:22:02;;;;;;;14.88;3.63;;;;;;;34.17;29.08;101550.59;4970845;28;20479;-74
2022/07/19 09:24:30;;;;;;;7.35;3.25;;;;;;;34.36;28.50;101553.00;4970792;28;20034;-74
2022/07/19 09:26:56;;;;;;;12.65;3.28;;;;;;;34.49;29.13;101541.72;4971518;28;20050;-74
2022/07/19 09:29:21;;;;;;;7.95;3.42;;;;;;;34.50;27.61;101544.19;4970227;28;20070;-74
2022/07/19 09:31:59;;;;;;;11.07;3.42;;;;;;;34.60;28.69;101548.94;4971440;28;20030;-74
2022/07/19 09:34:29;;;;;;;9.23;2.90;;;;;;;34.76;28.88;101542.53;4971186;28;20389;-74
2022/07/19 09:37:21;;;;;;;10.43;3.10;;;;;;;34.78;27.61;101543.13;4967874;28;20019;-72
2022/07/19 09:39:52;;;;;;;11.30;3.15;;;;;;;34.86;27.17;101542.69;4952254;29;20079;-72
2022/07/19 09:42:23;;;;;;;13.45;3.60;;;;;;;34.82;28.19;101546.16;4950861;29;20491;-73
2022/07/19 09:45:01;;;;;;;11.65;3.42;;;;;;;35.15;27.57;101536.94;4952237;29;20055;-73
2022/07/19 09:47:38;;;;;;;7.38;3.13;;;;;;;35.14;27.21;101538.84;4951280;29;20027;-74
2022/07/19 09:50:11;;;;;;;12.35;3.25;;;;;;;35.34;26.60;101543.72;4934326;29;20483;-73
2022/07/19 09:52:38;;;;;;;6.95;3.22;;;;;;;35.33;26.45;101530.28;4951393;29;20791;-73
2022/07/19 09:55:06;;;;;;;11.52;3.28;;;;;;;35.31;26.85;101535.16;4951853;29;20027;-73
2022/07/19 09:57:35;;;;;;;9.82;3.25;;;;;;;35.46;26.69;101529.81;4961771;28;20545;-73
2022/07/19 10:00:03;;;;;;;10.25;3.30;;;;;;;35.61;25.67;101531.84;4970686;28;20047;-73
2022/07/19 10:02:29;;;;;;;7.63;2.97;;;;;;;35.78;25.65;101536.06;4970842;28;20031;-74
2022/07/19 10:04:57;;;;;;;8.45;3.17;;;;;;;35.82;27.85;101527.34;4970764;28;20077;-74
2022/07/19 10:07:23;;;;;;;9.07;3.25;;;;;;;35.66;25.46;101524.50;4970773;28;20078;-74
2022/07/19 10:09:50;;;;;;;7.00;3.03;;;;;;;35.90;26.34;101530.41;4970927;28;20027;-73
2022/07/19 10:12:18;;;;;;;9.75;3.90;;;;;;;35.82;24.93;101528.19;4971301;28;20525;-74
2022/07/19 10:14:44;;;;;;;10.00;3.30;;;;;;;36.14;24.81;101524.50;4971017;28;20035;-72
2022/07/19 10:17:28;;;;;;;7.40;3.03;;;;;;;36.31;25.80;101522.41;4953582;28;20502;-74
2022/07/19 10:19:55;;;;;;;9.88;3.25;;;;;;;36.15;23.07;101520.66;4974771;28;20049;-73
2022/07/19 10:22:24;;;;;;;9.35;3.00;;;;;;;36.33;24.41;101514.72;4974237;28;20031;-73
2022/07/19 10:24:56;;;;;;;6.07;3.15;;;;;;;36.46;24.44;101511.50;4973933;28;20029;-73
2022/07/19 10:27:24;;;;;;;11.45;3.20;;;;;;;36.49;23.68;101512.88;4974023;28;20027;-73
2022/07/19 10:29:51;;;;;;;8.00;2.83;;;;;;;36.58;24.71;101506.59;4974403;28;20026;-73
2022/07/19 10:32:16;;;;;;;7.20;2.70;;;;;;;36.64;24.32;101508.25;4973123;28;20422;-74
2022/07/19 10:34:47;;;;;;;8.02;3.00;;;;;;;36.46;23.56;101506.00;4974273;28;20057;-73
2022/07/19 10:37:12;;;;;;;7.00;2.80;;;;;;;36.71;23.74;101497.81;4951419;29;20020;-73
2022/07/19 10:39:39;;;;;;;5.50;2.80;;;;;;;36.77;22.24;101495.94;4936528;29;20086;-74
2022/07/19 10:42:17;;;;;;;5.18;3.13;;;;;;;36.78;22.83;101491.28;4937948;29;20038;-73
2022/07/19 10:44:55;;;;;;;4.28;2.90;;;;;;;36.92;23.85;101493.22;4954783;29;20480;-73
2022/07/19 10:47:40;;;;;;;6.43;2.70;;;;;;;37.01;24.30;101488.00;4953763;29;20033;-72
2022/07/19 10:50:18;;;;;;;8.88;2.90;;;;;;;37.09;22.38;101483.88;4937007;29;20091;-73
2022/07/19 10:52:45;;;;;;;6.13;2.70;;;;;;;37.16;21.89;101482.50;4954041;28;20098;-74
2022/07/19 10:55:20;;;;;;;3.30;2.40;;;;;;;37.13;21.91;101477.56;4953969;29;20027;-73
2022/07/19 10:58:11;;;;;;;5.07;2.60;;;;;;;37.38;22.56;101478.66;4966973;28;20219;-74
2022/07/19 11:00:49;;;;;;;7.72;2.67;;;;;;;37.37;21.04;101477.03;4972346;28;20215;-74
2022/07/19 11:03:20;;;;;;;5.50;2.85;;;;;;;37.16;21.71;101477.00;4973913;28;20066;-74
2022/07/19 11:05:53;;;;;;;5.38;2.65;;;;;;;37.28;22.86;101474.03;4974013;28;20023;-73
2022/07/19 11:08:33;;;;;;;6.50;2.45;;;;;;;37.45;21.20;101473.72;4972336;28;20510;-73
2022/07/19 11:11:07;;;;;;;7.28;2.42;;;;;;;37.48;20.97;101467.66;4973773;28;20077;-73
2022/07/19 11:13:33;;;;;;;9.02;2.22;;;;;;;37.60;21.00;101459.94;4972178;28;20027;-73
2022/07/19 11:15:59;;;;;;;6.90;2.38;;;;;;;37.70;20.13;101446.22;4973511;28;20019;-75
2022/07/19 11:18:24;;;;;;;4.60;2.17;;;;;;;37.97;20.86;101445.81;4972805;28;20038;-74
2022/07/19 11:20:50;;;;;;;7.07;2.25;;;;;;;38.12;21.68;101450.41;4972541;28;20191;-74